createdAt,value
2023-02-03T00:01:56.911Z,101157.20
2023-02-03T00:04:24.104Z,101154.91
2023-02-03T00:06:51.494Z,101160.35
2023-02-03T00:09:19.986Z,101156.54
2023-02-03T00:11:47.613Z,101154.69
2023-02-03T00:14:14.726Z,101150.36
2023-02-03T00:16:41.914Z,101148.70
2023-02-03T00:19:09.175Z,101149.44
2023-02-03T00:21:36.295Z,101142.23
2023-02-03T00:24:03.512Z,101144.98
2023-02-03T00:26:30.763Z,101141.63
2023-02-03T00:29:00.272Z,101141.14
2023-02-03T00:31:27.445Z,101138.13
2023-02-03T00:33:56.673Z,101130.20
2023-02-03T00:36:25.054Z,101127.84
2023-02-03T00:38:52.591Z,101127.39
2023-02-03T00:41:21.231Z,101121.58
2023-02-03T00:43:48.920Z,101119.54
2023-02-03T00:46:16.391Z,101120.42
2023-02-03T00:48:43.783Z,101112.59
2023-02-03T00:51:11.017Z,101105.34
2023-02-03T00:53:38.092Z,101101.24
2023-02-03T00:56:11.999Z,101091.70
2023-02-03T00:58:42.492Z,101081.02
2023-02-03T01:01:10.276Z,101072.20
2023-02-03T01:03:38.011Z,101066.31
2023-02-03T01:06:12.666Z,101063.09
2023-02-03T01:08:40.401Z,101058.05
2023-02-03T01:11:10.013Z,101057.20
2023-02-03T01:13:38.051Z,101054.98
2023-02-03T01:16:14.445Z,101046.34
2023-02-03T01:18:42.929Z,101033.23
2023-02-03T01:21:15.593Z,101025.21
2023-02-03T01:23:43.099Z,101015.36
2023-02-03T01:26:13.499Z,101013.54
2023-02-03T01:28:41.272Z,101005.98
2023-02-03T01:31:14.349Z,101000.66
2023-02-03T01:33:45.692Z,100999.26
2023-02-03T01:36:13.203Z,100995.80
2023-02-03T01:38:40.589Z,100992.42
2023-02-03T01:41:10.969Z,100986.21
2023-02-03T01:43:43.999Z,100987.78
2023-02-03T01:46:31.586Z,100990.77
2023-02-03T01:49:01.655Z,100989.92
2023-02-03T01:51:30.008Z,100995.09
2023-02-03T01:53:57.638Z,101004.35
2023-02-03T01:56:29.918Z,101018.84
2023-02-03T01:58:59.823Z,101011.95
2023-02-03T02:01:31.330Z,101003.75
2023-02-03T02:04:01.110Z,100992.19
2023-02-03T02:06:28.484Z,100990.59
2023-02-03T02:08:58.799Z,100988.18
2023-02-03T02:11:26.913Z,100984.94
2023-02-03T02:13:57.977Z,100986.52
2023-02-03T02:16:34.371Z,100981.33
2023-02-03T02:19:24.101Z,100968.85
2023-02-03T02:22:13.043Z,100957.70
2023-02-03T02:24:55.171Z,100950.98
2023-02-03T02:27:34.691Z,100941.89
2023-02-03T02:30:32.947Z,100931.44
2023-02-03T02:33:27.848Z,100916.93
2023-02-03T02:36:06.518Z,100903.54
2023-02-03T02:38:42.347Z,100895.20
2023-02-03T02:41:24.113Z,100883.63
2023-02-03T02:44:05.138Z,100873.58
2023-02-03T02:46:45.050Z,100868.25
2023-02-03T02:49:40.220Z,100869.37
2023-02-03T02:52:09.120Z,100864.44
2023-02-03T02:54:41.977Z,100861.08
2023-02-03T02:57:13.121Z,100856.91
2023-02-03T02:59:40.309Z,100857.27
2023-02-03T03:02:10.767Z,100860.61
2023-02-03T03:04:41.084Z,100858.96
2023-02-03T03:07:14.456Z,100859.86
2023-02-03T03:09:47.018Z,100854.62
2023-02-03T03:12:35.919Z,100851.32
2023-02-03T03:15:16.411Z,100845.09
2023-02-03T03:17:52.920Z,100840.66
2023-02-03T03:20:24.417Z,100832.71
2023-02-03T03:23:31.736Z,100826.06
2023-02-03T03:26:14.238Z,100823.38
2023-02-03T03:28:52.656Z,100819.29
2023-02-03T03:31:20.706Z,100814.75
2023-02-03T03:33:48.626Z,100811.29
2023-02-03T03:36:38.280Z,100806.81
2023-02-03T03:39:14.879Z,100801.47
2023-02-03T03:41:47.873Z,100801.52
2023-02-03T03:44:18.158Z,100791.97
2023-02-03T03:46:52.245Z,100790.94
2023-02-03T03:49:21.804Z,100790.55
2023-02-03T03:51:57.241Z,100784.84
2023-02-03T03:54:25.858Z,100777.01
2023-02-03T03:57:06.321Z,100769.36
2023-02-03T03:59:37.452Z,100760.89
2023-02-03T04:02:05.001Z,100758.91
2023-02-03T04:04:36.506Z,100756.30
2023-02-03T04:07:04.072Z,100745.54
2023-02-03T04:09:31.671Z,100741.56
2023-02-03T04:12:01.585Z,100736.48
2023-02-03T04:14:30.128Z,100733.61
2023-02-03T04:16:58.154Z,100727.12
2023-02-03T04:19:26.388Z,100718.11
2023-02-03T04:21:53.552Z,100714.20
2023-02-03T04:24:20.836Z,100709.59
2023-02-03T04:26:48.063Z,100705.77
2023-02-03T04:29:15.256Z,100707.07
2023-02-03T04:31:42.466Z,100708.70
2023-02-03T04:34:09.744Z,100702.03
2023-02-03T04:36:36.827Z,100691.41
2023-02-03T04:39:04.019Z,100690.36
2023-02-03T04:41:31.180Z,100685.90
2023-02-03T04:43:58.228Z,100675.85
2023-02-03T04:46:25.610Z,100670.98
2023-02-03T04:48:52.837Z,100664.20
2023-02-03T04:51:20.115Z,100657.54
2023-02-03T04:53:47.239Z,100651.73
2023-02-03T04:56:15.985Z,100648.84
2023-02-03T04:58:43.368Z,100642.92
2023-02-03T05:01:10.744Z,100649.39
2023-02-03T05:03:38.449Z,100644.50
2023-02-03T05:06:05.880Z,100639.93
2023-02-03T05:08:33.059Z,100631.13
2023-02-03T05:11:02.085Z,100627.77
2023-02-03T05:13:29.520Z,100617.48
2023-02-03T05:15:56.702Z,100611.20
2023-02-03T05:18:23.917Z,100607.16
2023-02-03T05:20:51.047Z,100595.24
2023-02-03T05:23:18.124Z,100593.45
2023-02-03T05:25:45.570Z,100590.98
2023-02-03T05:28:12.765Z,100588.08
2023-02-03T05:30:40.723Z,100583.35
2023-02-03T05:33:08.071Z,100572.38
2023-02-03T05:35:35.463Z,100561.09
2023-02-03T05:38:03.208Z,100554.60
2023-02-03T05:40:49.374Z,100549.32
2023-02-03T05:43:22.314Z,100541.27
2023-02-03T05:45:50.173Z,100533.81
2023-02-03T05:48:21.405Z,100529.21
2023-02-03T05:50:51.996Z,100531.86
2023-02-03T05:53:19.594Z,100524.77
2023-02-03T05:55:52.341Z,100522.39
2023-02-03T05:58:19.936Z,100518.35
2023-02-03T06:00:47.710Z,100510.08
2023-02-03T06:03:15.163Z,100506.67
2023-02-03T06:05:44.011Z,100508.31
2023-02-03T06:08:11.495Z,100510.69
2023-02-03T06:10:42.114Z,100509.73
2023-02-03T06:13:40.010Z,100499.65
2023-02-03T06:19:26.486Z,100494.44
2023-02-03T06:22:01.460Z,100482.01
2023-02-03T06:24:31.237Z,100477.75
2023-02-03T06:27:02.991Z,100470.70
2023-02-03T06:29:32.580Z,100457.02
2023-02-03T06:32:00.588Z,100450.79
2023-02-03T06:34:30.513Z,100448.80
2023-02-03T06:37:03.101Z,100441.53
2023-02-03T06:39:42.273Z,100431.55
2023-02-03T06:42:14.901Z,100432.80
2023-02-03T06:44:58.979Z,100424.60
2023-02-03T06:47:36.987Z,100409.14
2023-02-03T06:50:07.366Z,100401.14
2023-02-03T06:52:56.157Z,100395.20
2023-02-03T06:55:26.601Z,100380.23
2023-02-03T06:57:59.000Z,100367.34
2023-02-03T07:00:29.673Z,100361.20
2023-02-03T07:03:04.563Z,100352.94
2023-02-03T07:05:37.329Z,100355.67
2023-02-03T07:08:09.910Z,100351.80
2023-02-03T07:10:42.553Z,100340.02
2023-02-03T07:13:10.875Z,100327.64
2023-02-03T07:15:42.938Z,100318.54
2023-02-03T07:18:11.883Z,100302.21
2023-02-03T07:20:40.383Z,100295.08
2023-02-03T07:23:09.255Z,100289.74
2023-02-03T07:25:51.007Z,100281.14
2023-02-03T07:28:33.627Z,100277.35
2023-02-03T07:31:10.004Z,100264.48
2023-02-03T07:33:38.963Z,100251.68
2023-02-03T07:36:11.891Z,100245.52
2023-02-03T07:38:39.858Z,100240.79
2023-02-03T07:41:09.139Z,100241.63
2023-02-03T07:43:37.635Z,100239.58
2023-02-03T07:46:06.396Z,100233.48
2023-02-03T07:48:39.952Z,100230.84
2023-02-03T07:51:09.025Z,100222.36
2023-02-03T07:53:36.308Z,100215.92
2023-02-03T07:56:04.741Z,100211.77
2023-02-03T07:58:34.525Z,100203.54
2023-02-03T08:01:01.921Z,100186.55
2023-02-03T08:03:33.540Z,100175.73
2023-02-03T08:06:02.619Z,100164.06
2023-02-03T08:08:45.830Z,100156.33
2023-02-03T08:11:13.307Z,100144.91
2023-02-03T08:13:40.921Z,100140.25
2023-02-03T08:16:17.826Z,100133.20
2023-02-03T08:18:46.457Z,100122.71
2023-02-03T08:21:14.301Z,100119.13
2023-02-03T08:23:41.485Z,100111.01
2023-02-03T08:26:08.653Z,100109.89
2023-02-03T08:28:35.831Z,100104.20
2023-02-03T08:31:10.152Z,100090.23
2023-02-03T08:36:22.846Z,100080.17
2023-02-03T08:38:50.056Z,100077.23
2023-02-03T08:41:18.184Z,100068.92
2023-02-03T08:43:45.391Z,100051.94
2023-02-03T08:46:13.623Z,100038.55
2023-02-03T08:48:40.789Z,100031.54
2023-02-03T08:51:14.017Z,100025.27
2023-02-03T08:53:41.449Z,100022.96
2023-02-03T08:56:10.717Z,100002.45
2023-02-03T08:58:38.844Z,99990.58
2023-02-03T09:01:10.301Z,99981.17
2023-02-03T09:03:38.138Z,99977.60
2023-02-03T09:06:06.741Z,99977.70
2023-02-03T09:08:34.250Z,99971.33
2023-02-03T09:11:01.589Z,99974.14
2023-02-03T09:13:28.782Z,99968.05
2023-02-03T09:16:00.238Z,99963.32
2023-02-03T09:18:27.418Z,99965.10
2023-02-03T09:21:00.975Z,99963.75
2023-02-03T09:23:28.263Z,99942.89
2023-02-03T09:25:55.898Z,99938.70
2023-02-03T09:28:23.252Z,99926.93
2023-02-03T09:30:50.451Z,99915.63
2023-02-03T09:33:17.547Z,99914.00
2023-02-03T09:35:52.532Z,99901.48
2023-02-03T09:38:20.226Z,99889.87
2023-02-03T09:41:09.380Z,99886.44
2023-02-03T09:44:35.596Z,99871.14
2023-02-03T09:47:29.886Z,99856.41
2023-02-03T09:50:01.478Z,99836.73
2023-02-03T09:52:32.739Z,99831.73
2023-02-03T09:55:19.756Z,99813.10
2023-02-03T09:59:25.184Z,99798.67
2023-02-03T10:02:21.308Z,99780.02
2023-02-03T10:05:07.947Z,99766.73
2023-02-03T12:50:04.750Z,99335.73
2023-02-03T12:53:21.466Z,99335.67
2023-02-03T12:56:03.868Z,99343.12
2023-02-03T12:59:11.373Z,99343.98
2023-02-03T13:01:49.600Z,99342.73
2023-02-03T13:04:34.905Z,99339.64
2023-02-03T13:07:17.491Z,99333.27
2023-02-03T13:10:15.528Z,99337.27
2023-02-03T13:12:47.167Z,99334.81
2023-02-03T13:15:26.392Z,99339.96
2023-02-03T13:18:15.315Z,99342.45
2023-02-03T13:25:03.858Z,99396.70
2023-02-03T13:43:06.285Z,99412.96
2023-02-03T13:45:42.981Z,99433.64
2023-02-03T14:02:54.614Z,99462.81
2023-02-03T14:05:44.674Z,99460.44
2023-02-03T14:08:25.610Z,99464.91
2023-02-03T14:27:23.498Z,99458.91
2023-02-03T14:30:19.003Z,99446.28
2023-02-03T14:32:59.155Z,99436.85
2023-02-03T14:35:36.657Z,99442.77
2023-02-03T14:38:15.409Z,99449.90
2023-02-03T14:40:46.941Z,99450.90
2023-02-03T14:43:40.488Z,99453.73
2023-02-03T14:46:27.148Z,99455.27
2023-02-03T14:49:10.809Z,99454.56
2023-02-03T14:51:51.682Z,99455.06
2023-02-03T14:54:38.776Z,99458.73
2023-02-03T14:57:25.963Z,99462.36
2023-02-03T15:00:27.909Z,99462.15
2023-02-03T15:03:11.388Z,99465.41
2023-02-03T15:05:42.345Z,99466.70
2023-02-03T15:08:33.736Z,99475.02
2023-02-03T15:11:24.918Z,99476.86
2023-02-03T15:13:55.868Z,99482.86
2023-02-03T15:16:27.423Z,99486.15
2023-02-03T15:18:58.835Z,99490.33
2023-02-03T15:21:27.512Z,99493.11
2023-02-03T15:23:56.344Z,99492.83
2023-02-03T15:26:27.255Z,99492.34
2023-02-03T15:28:59.635Z,99494.55
2023-02-03T15:31:32.657Z,99500.60
2023-02-03T15:34:21.076Z,99509.91
2023-02-03T15:36:54.695Z,99519.59
2023-02-03T15:39:32.612Z,99526.65
2023-02-03T15:42:03.187Z,99530.87
2023-02-03T15:45:01.419Z,99541.71
2023-02-03T15:47:47.112Z,99550.95
2023-02-03T15:50:49.270Z,99565.88
2023-02-03T15:58:07.285Z,99576.70
2023-02-03T16:00:41.428Z,99571.23
2023-02-03T16:03:21.787Z,99565.19
2023-02-03T16:05:50.694Z,99557.11
2023-02-03T16:08:49.345Z,99560.83
2023-02-03T16:11:23.890Z,99559.65
2023-02-03T16:13:56.666Z,99557.52
2023-02-03T16:16:30.124Z,99557.61
2023-02-03T16:19:12.741Z,99562.55
2023-02-03T16:21:54.689Z,99564.88
2023-02-03T16:24:33.099Z,99564.69
2023-02-03T16:27:26.921Z,99563.41
2023-02-03T16:30:26.595Z,99562.98
2023-02-03T16:33:39.945Z,99564.71
2023-02-03T16:36:32.662Z,99569.34
2023-02-03T16:39:22.308Z,99574.20
2023-02-03T16:42:09.649Z,99579.91
2023-02-03T16:44:56.758Z,99578.48
2023-02-03T16:47:46.969Z,99581.55
2023-02-03T16:50:39.381Z,99589.75
2023-02-03T16:53:18.065Z,99593.10
2023-02-03T16:55:49.124Z,99589.13
2023-02-03T16:58:17.881Z,99593.04
2023-02-03T17:00:50.197Z,99598.27
2023-02-03T17:03:22.513Z,99602.49
2023-02-03T17:05:53.287Z,99601.50
2023-02-03T17:08:25.054Z,99597.19
2023-02-03T17:10:54.199Z,99602.01
2023-02-03T17:13:24.980Z,99601.02
2023-02-03T17:15:53.566Z,99600.49
2023-02-03T17:18:22.788Z,99600.38
2023-02-03T17:20:51.449Z,99606.34
2023-02-03T17:23:19.975Z,99600.93
2023-02-03T17:25:50.196Z,99607.14
2023-02-03T17:28:18.752Z,99611.79
2023-02-03T17:31:00.269Z,99609.37
2023-02-03T17:33:30.167Z,99617.55
2023-02-03T17:36:07.520Z,99615.40
2023-02-03T17:55:12.455Z,99641.55
2023-02-03T17:57:41.016Z,99644.09
2023-02-03T18:00:10.847Z,99641.34
2023-02-03T18:02:45.354Z,99639.52
2023-02-03T18:05:14.179Z,99641.13
2023-02-03T18:07:42.732Z,99648.73
2023-02-03T18:10:11.656Z,99646.55
2023-02-03T18:12:40.771Z,99648.35
2023-02-03T18:15:09.788Z,99645.02
2023-02-03T18:17:44.387Z,99648.19
2023-02-03T18:20:14.208Z,99648.98
2023-02-03T18:22:45.300Z,99651.40
2023-02-03T18:25:18.316Z,99647.43
2023-02-03T18:27:47.427Z,99650.17
2023-02-03T18:30:18.484Z,99649.11
2023-02-03T18:32:53.142Z,99643.14
2023-02-03T18:35:21.895Z,99652.30
2023-02-03T18:37:51.954Z,99653.14
2023-02-03T18:40:20.596Z,99649.88
2023-02-03T18:42:49.604Z,99655.31
2023-02-03T18:45:18.167Z,99651.20
2023-02-03T18:47:46.687Z,99652.23
2023-02-03T18:50:15.997Z,99651.46
2023-02-03T18:52:44.913Z,99658.67
2023-02-03T18:55:14.282Z,99662.39
2023-02-03T18:57:42.855Z,99663.35
2023-02-03T19:00:14.204Z,99659.87
2023-02-03T19:02:42.999Z,99651.42
2023-02-03T19:05:12.014Z,99657.90
2023-02-03T19:07:40.550Z,99656.36
2023-02-03T19:10:15.252Z,99661.42
2023-02-03T19:12:44.186Z,99660.86
2023-02-03T19:15:12.793Z,99659.88
2023-02-03T19:17:41.298Z,99656.92
2023-02-03T19:20:11.158Z,99659.90
2023-02-03T19:22:39.655Z,99659.56
2023-02-03T19:25:08.742Z,99663.32
2023-02-03T19:27:37.443Z,99665.28
2023-02-03T19:30:07.297Z,99667.23
2023-02-03T19:32:35.815Z,99671.13
2023-02-03T19:35:07.986Z,99672.79
2023-02-03T19:37:36.562Z,99670.33
2023-02-03T19:40:06.803Z,99674.15
2023-02-03T19:42:35.422Z,99680.83
2023-02-03T19:45:05.737Z,99687.67
2023-02-03T19:47:35.125Z,99693.35
2023-02-03T19:50:04.897Z,99693.59
2023-02-03T19:52:34.728Z,99695.06
2023-02-03T19:55:04.057Z,99692.42
2023-02-03T19:57:54.037Z,99688.36
2023-02-03T20:11:54.332Z,99688.63
2023-02-03T20:14:43.330Z,99693.38
2023-02-03T20:17:37.833Z,99692.09
2023-02-03T20:20:12.278Z,99693.45
2023-02-03T20:22:41.300Z,99700.36
2023-02-03T20:33:14.337Z,99712.14
2023-02-03T20:36:01.066Z,99707.77
2023-02-03T20:38:30.360Z,99710.38
2023-02-03T20:40:58.885Z,99711.52
2023-02-03T20:43:29.341Z,99714.97
2023-02-03T20:45:57.893Z,99712.10
2023-02-03T20:48:27.164Z,99712.62
2023-02-03T20:50:56.145Z,99713.55
2023-02-03T20:53:26.906Z,99713.35
2023-02-03T20:56:00.389Z,99711.92
2023-02-03T20:58:37.017Z,99720.34
2023-02-03T21:01:18.512Z,99717.73
2023-02-03T21:04:06.051Z,99727.72
2023-02-03T21:06:35.512Z,99734.84
2023-02-03T21:09:20.054Z,99734.66
2023-02-03T21:11:48.551Z,99736.91
2023-02-03T21:14:27.722Z,99745.59
2023-02-03T21:16:56.207Z,99760.27
2023-02-03T21:19:32.655Z,99757.86
2023-02-03T21:22:24.432Z,99759.20
2023-02-03T21:24:59.163Z,99761.42
2023-02-03T21:27:33.772Z,99752.21
2023-02-03T21:30:22.899Z,99757.70
2023-02-03T21:32:51.415Z,99768.89
2023-02-03T21:35:25.055Z,99766.05
2023-02-03T21:38:01.987Z,99765.91
2023-02-03T21:40:34.162Z,99767.18
2023-02-03T21:43:03.551Z,99771.08
2023-02-03T21:45:38.439Z,99779.92
2023-02-03T21:48:37.918Z,99782.07
2023-02-03T21:51:24.029Z,99773.04
2023-02-03T21:54:02.791Z,99764.16
2023-02-03T21:56:42.552Z,99774.67
2023-02-03T21:59:21.292Z,99781.56
2023-02-03T22:01:50.714Z,99786.28
2023-02-03T22:04:19.217Z,99786.95
2023-02-03T22:06:50.694Z,99779.00
2023-02-03T22:09:21.642Z,99773.48
2023-02-03T22:11:51.415Z,99773.92
2023-02-03T22:14:21.311Z,99786.14
2023-02-03T22:16:49.911Z,99792.23
2023-02-03T22:19:18.511Z,99795.30
2023-02-03T22:21:48.783Z,99804.21
2023-02-03T22:24:17.315Z,99804.00
2023-02-03T22:26:46.196Z,99800.06
2023-02-03T22:29:14.647Z,99800.95
2023-02-03T22:31:43.608Z,99798.27
2023-02-03T22:34:12.238Z,99803.42
2023-02-03T22:36:40.702Z,99802.89
2023-02-03T22:39:11.314Z,99806.06
2023-02-03T22:41:39.844Z,99800.22
2023-02-03T22:44:08.273Z,99811.19
2023-02-03T22:46:36.744Z,99816.48
2023-02-03T22:49:05.209Z,99816.80
2023-02-03T22:51:33.798Z,99817.93
2023-02-03T22:54:02.610Z,99824.86
2023-02-03T22:56:31.157Z,99827.42
2023-02-03T22:58:59.551Z,99837.95
2023-02-03T23:01:28.022Z,99849.15
2023-02-03T23:03:56.524Z,99860.94
2023-02-03T23:06:24.967Z,99864.23
2023-02-03T23:08:55.928Z,99863.75
2023-02-03T23:11:24.523Z,99866.63
2023-02-03T23:13:52.990Z,99873.39
2023-02-03T23:16:22.615Z,99876.52
2023-02-03T23:18:51.188Z,99879.10
2023-02-03T23:21:19.701Z,99885.23
2023-02-03T23:23:48.258Z,99883.54
2023-02-03T23:26:17.686Z,99895.04
2023-02-03T23:28:46.191Z,99900.52
2023-02-03T23:31:15.542Z,99907.94
2023-02-03T23:34:04.383Z,99920.92
2023-02-03T23:36:34.784Z,99937.34
2023-02-03T23:39:04.660Z,99947.80
2023-02-03T23:41:33.934Z,99979.09
2023-02-03T23:44:02.506Z,100007.86
2023-02-03T23:46:31.465Z,100035.58
2023-02-03T23:48:59.918Z,100046.53
2023-02-03T23:51:28.404Z,100076.08
2023-02-03T23:53:56.937Z,100103.08
2023-02-03T23:56:25.328Z,100120.05
2023-02-03T23:58:53.913Z,100136.45
